createdAt,value
2018-11-14T00:00:10.301Z,23.27
2018-11-14T00:02:39.144Z,23.80
2018-11-14T00:05:14.842Z,23.30
2018-11-14T00:07:43.705Z,22.57
2018-11-14T00:10:12.377Z,22.13
2018-11-14T00:12:41.172Z,24.30
2018-11-14T00:15:13.008Z,23.63
2018-11-14T00:17:42.438Z,24.50
2018-11-14T00:20:11.585Z,24.47
2018-11-14T00:22:41.428Z,24.93
2018-11-14T00:25:09.977Z,25.37
2018-11-14T00:27:38.718Z,25.53
2018-11-14T00:30:13.580Z,27.20
2018-11-14T00:32:42.541Z,28.80
2018-11-14T00:35:11.730Z,28.07
2018-11-14T00:37:40.761Z,27.30
2018-11-14T00:40:10.768Z,27.20
2018-11-14T00:42:40.068Z,27.27
2018-11-14T00:45:10.775Z,29.63
2018-11-14T00:47:39.610Z,29.43
2018-11-14T00:50:08.818Z,29.83
2018-11-14T00:52:37.547Z,28.70
2018-11-14T00:55:08.239Z,26.07
2018-11-14T00:57:37.030Z,27.30
2018-11-14T01:00:08.777Z,27.73
2018-11-14T01:02:38.188Z,25.00
2018-11-14T01:05:07.914Z,26.00
2018-11-14T01:07:36.692Z,25.47
2018-11-14T01:10:07.334Z,24.50
2018-11-14T01:12:36.039Z,25.57
2018-11-14T01:15:04.915Z,28.40
2018-11-14T01:17:33.723Z,27.83
2018-11-14T01:20:02.294Z,24.83
2018-11-14T01:22:31.090Z,21.17
2018-11-14T01:24:59.628Z,22.03
2018-11-14T01:27:28.368Z,22.97
2018-11-14T01:29:56.923Z,23.03
2018-11-14T01:32:25.767Z,19.47
2018-11-14T01:34:54.311Z,21.23
2018-11-14T01:37:23.120Z,21.43
2018-11-14T01:39:51.683Z,19.73
2018-11-14T01:42:20.450Z,20.43
2018-11-14T01:45:06.827Z,20.53
2018-11-14T01:47:35.541Z,21.80
2018-11-14T01:50:04.368Z,23.30
2018-11-14T01:52:33.178Z,20.33
2018-11-14T01:55:01.743Z,21.00
2018-11-14T01:57:30.544Z,20.73
2018-11-14T01:59:59.090Z,22.50
2018-11-14T02:02:27.938Z,22.20
2018-11-14T02:04:56.504Z,21.07
2018-11-14T02:07:25.309Z,23.50
2018-11-14T02:09:53.862Z,23.10
2018-11-14T02:12:22.704Z,24.43
2018-11-14T02:14:51.543Z,24.33
2018-11-14T02:17:20.174Z,23.13
2018-11-14T02:19:48.694Z,23.30
2018-11-14T02:22:17.452Z,21.90
2018-11-14T02:24:45.998Z,20.97
2018-11-14T02:27:14.894Z,20.27
2018-11-14T02:29:43.485Z,19.37
2018-11-14T02:32:12.258Z,19.70
2018-11-14T02:34:40.800Z,18.50
2018-11-14T02:37:09.479Z,18.50
2018-11-14T02:39:38.043Z,19.67
2018-11-14T02:42:06.765Z,18.03
2018-11-14T02:44:35.303Z,19.40
2018-11-14T02:47:04.231Z,19.10
2018-11-14T02:49:32.757Z,18.87
2018-11-14T02:52:01.528Z,19.67
2018-11-14T02:54:30.064Z,18.87
2018-11-14T02:56:58.914Z,18.30
2018-11-14T02:59:27.456Z,17.60
2018-11-14T03:01:56.263Z,19.27
2018-11-14T03:04:24.767Z,18.80
2018-11-14T03:06:53.564Z,18.43
2018-11-14T03:09:23.340Z,19.13
2018-11-14T03:11:52.181Z,18.20
2018-11-14T03:14:20.778Z,19.10
2018-11-14T03:16:49.642Z,18.80
2018-11-14T03:19:18.203Z,19.27
2018-11-14T03:21:47.027Z,18.80
2018-11-14T03:24:15.593Z,17.03
2018-11-14T03:26:44.423Z,17.10
2018-11-14T03:29:13.077Z,17.60
2018-11-14T03:31:41.742Z,16.27
2018-11-14T03:34:10.285Z,16.97
2018-11-14T03:36:38.883Z,17.23
2018-11-14T03:39:09.230Z,16.80
2018-11-14T03:41:38.102Z,17.30
2018-11-14T03:44:06.995Z,18.20
2018-11-14T03:46:35.536Z,17.17
2018-11-14T03:49:04.052Z,17.03
2018-11-14T03:51:32.757Z,17.97
2018-11-14T03:54:01.250Z,18.47
2018-11-14T03:56:29.924Z,17.63
2018-11-14T03:58:58.477Z,19.60
2018-11-14T04:01:27.322Z,18.20
2018-11-14T04:03:55.916Z,18.07
2018-11-14T04:06:24.746Z,18.97
2018-11-14T04:08:53.356Z,20.23
2018-11-14T04:11:22.085Z,20.00
2018-11-14T04:13:50.619Z,19.80
2018-11-14T04:16:19.360Z,18.33
2018-11-14T04:18:47.910Z,18.13
2018-11-14T04:21:16.754Z,17.93
2018-11-14T04:23:49.536Z,16.83
2018-11-14T04:26:24.978Z,18.83
2018-11-14T04:28:53.532Z,18.10
2018-11-14T04:31:22.347Z,19.33
2018-11-14T04:33:50.955Z,19.80
2018-11-14T04:36:19.667Z,19.33
2018-11-14T04:38:48.241Z,18.13
2018-11-14T04:41:17.013Z,17.83
2018-11-14T04:43:45.551Z,17.27
2018-11-14T04:46:14.166Z,17.43
2018-11-14T04:48:42.726Z,16.80
2018-11-14T04:51:11.544Z,16.47
2018-11-14T04:53:40.244Z,17.87
2018-11-14T04:56:08.857Z,18.03
2018-11-14T04:58:37.395Z,19.10
2018-11-14T05:01:06.171Z,18.33
2018-11-14T05:03:34.763Z,19.43
2018-11-14T05:06:03.602Z,19.73
2018-11-14T05:08:32.206Z,18.77
2018-11-14T05:11:01.021Z,19.00
2018-11-14T05:13:29.629Z,19.20
2018-11-14T05:15:58.463Z,19.07
2018-11-14T05:18:27.082Z,17.00
2018-11-14T05:20:55.840Z,17.50
2018-11-14T05:23:24.383Z,17.00
2018-11-14T05:25:53.102Z,17.57
2018-11-14T05:28:22.042Z,18.90
2018-11-14T05:30:50.917Z,16.50
2018-11-14T05:33:19.480Z,17.97
2018-11-14T05:35:48.255Z,17.83
2018-11-14T05:38:16.861Z,17.37
2018-11-14T05:40:45.669Z,18.00
2018-11-14T05:43:14.264Z,17.90
2018-11-14T05:45:43.432Z,18.83
2018-11-14T05:48:12.048Z,17.33
2018-11-14T05:50:40.687Z,17.20
2018-11-14T05:53:09.280Z,16.83
2018-11-14T05:55:38.024Z,15.53
2018-11-14T05:58:06.735Z,16.37
2018-11-14T06:00:35.508Z,16.60
2018-11-14T06:03:04.818Z,17.50
2018-11-14T06:05:33.593Z,16.47
2018-11-14T06:08:02.150Z,18.63
2018-11-14T06:10:30.964Z,20.33
2018-11-14T06:12:59.516Z,18.80
2018-11-14T06:15:28.449Z,19.33
2018-11-14T06:17:57.824Z,19.07
2018-11-14T06:20:26.406Z,18.20
2018-11-14T06:22:55.154Z,19.63
2018-11-14T06:25:30.957Z,20.10
2018-11-14T06:28:00.511Z,19.67
2018-11-14T06:30:29.606Z,19.90
2018-11-14T06:32:58.837Z,19.27
2018-11-14T06:35:27.725Z,20.97
2018-11-14T06:37:56.496Z,22.93
2018-11-14T06:40:25.289Z,21.47
2018-11-14T06:42:53.855Z,23.23
2018-11-14T06:45:23.778Z,20.10
2018-11-14T06:47:53.710Z,21.00
2018-11-14T06:50:22.469Z,19.03
2018-11-14T06:52:52.539Z,18.90
2018-11-14T06:55:21.726Z,18.60
2018-11-14T06:57:50.309Z,19.10
2018-11-14T07:00:23.482Z,20.20
2018-11-14T07:02:52.681Z,30.77
2018-11-14T07:05:21.557Z,33.33
2018-11-14T07:07:50.106Z,31.27
2018-11-14T07:10:20.354Z,24.87
2018-11-14T07:12:48.955Z,23.90
2018-11-14T07:15:19.011Z,19.10
2018-11-14T07:17:48.415Z,16.83
2018-11-14T07:20:20.707Z,17.57
2018-11-14T07:22:49.309Z,16.13
2018-11-14T07:25:18.168Z,17.47
2018-11-14T07:27:46.856Z,17.47
2018-11-14T07:30:33.764Z,17.13
2018-11-14T07:33:03.731Z,17.53
2018-11-14T07:35:32.486Z,17.60
2018-11-14T07:38:37.816Z,16.70
2018-11-14T07:41:08.051Z,17.93
2018-11-14T07:43:37.531Z,17.83
2018-11-14T07:46:06.646Z,20.90
2018-11-14T07:48:35.391Z,23.87
2018-11-14T07:51:04.275Z,24.10
2018-11-14T07:53:33.326Z,21.97
2018-11-14T07:56:02.104Z,19.90
2018-11-14T07:58:31.117Z,21.23
2018-11-14T08:01:00.000Z,18.70
2018-11-14T08:03:28.524Z,19.97
2018-11-14T08:05:58.486Z,21.23
2018-11-14T08:08:27.146Z,22.93
2018-11-14T08:10:55.780Z,19.33
2018-11-14T08:13:27.499Z,19.93
2018-11-14T08:15:57.759Z,19.23
2018-11-14T08:18:26.704Z,20.13
2018-11-14T08:20:55.945Z,18.90
2018-11-14T08:23:24.483Z,17.47
2018-11-14T08:25:53.109Z,18.50
2018-11-14T08:28:21.789Z,17.43
2018-11-14T08:30:50.779Z,17.53
2018-11-14T08:33:19.312Z,16.07
2018-11-14T08:35:48.127Z,18.80
2018-11-14T08:38:16.680Z,16.77
2018-11-14T08:40:45.484Z,16.17
2018-11-14T08:43:14.065Z,17.47
2018-11-14T08:45:49.716Z,16.73
2018-11-14T08:48:18.262Z,16.53
2018-11-14T08:50:46.990Z,15.50
2018-11-14T08:53:15.638Z,15.17
2018-11-14T08:55:44.384Z,15.03
2018-11-14T08:58:13.642Z,15.60
2018-11-14T09:00:42.358Z,15.47
2018-11-14T09:03:12.365Z,15.07
2018-11-14T09:05:41.357Z,16.73
2018-11-14T09:08:09.970Z,13.73
2018-11-14T09:10:38.902Z,15.03
2018-11-14T09:13:11.913Z,15.63
2018-11-14T09:15:41.125Z,15.13
2018-11-14T09:18:09.886Z,14.47
2018-11-14T09:20:38.781Z,14.83
2018-11-14T09:23:07.464Z,14.80
2018-11-14T09:25:36.425Z,13.53
2018-11-14T09:28:05.150Z,13.43
2018-11-14T09:30:34.019Z,13.73
2018-11-14T09:33:02.618Z,13.50
2018-11-14T09:35:31.557Z,13.87
2018-11-14T09:38:00.811Z,14.17
2018-11-14T09:40:30.290Z,14.77
2018-11-14T09:42:58.892Z,14.07
2018-11-14T09:45:28.866Z,16.07
2018-11-14T09:47:57.520Z,14.47
2018-11-14T09:50:28.336Z,15.03
2018-11-14T09:52:58.321Z,15.60
2018-11-14T09:55:27.153Z,15.70
2018-11-14T09:57:55.700Z,12.73
2018-11-14T10:00:25.726Z,14.07
2018-11-14T10:02:56.149Z,13.23
2018-11-14T10:05:25.521Z,12.73
2018-11-14T10:07:54.105Z,12.90
2018-11-14T10:10:23.383Z,12.30
2018-11-14T10:12:51.917Z,11.87
2018-11-14T10:15:22.943Z,11.23
2018-11-14T10:17:51.500Z,11.47
2018-11-14T10:20:21.519Z,12.27
2018-11-14T10:22:50.126Z,12.23
2018-11-14T10:25:19.304Z,13.63
2018-11-14T10:27:48.417Z,11.77
2018-11-14T10:30:18.954Z,9.00
2018-11-14T10:32:48.091Z,8.97
2018-11-14T10:35:16.936Z,9.70
2018-11-14T10:37:45.753Z,10.00
2018-11-14T10:40:16.943Z,10.47
2018-11-14T10:42:45.650Z,9.70
2018-11-14T10:45:15.683Z,9.87
2018-11-14T10:47:44.483Z,11.07
2018-11-14T10:50:15.435Z,10.37
2018-11-14T10:52:43.966Z,8.37
2018-11-14T10:55:13.658Z,8.60
2018-11-14T10:57:42.286Z,8.53
2018-11-14T11:00:32.041Z,8.47
2018-11-14T11:03:06.819Z,8.20
2018-11-14T11:05:41.014Z,8.67
2018-11-14T11:08:15.118Z,8.20
2018-11-14T11:10:49.364Z,9.67
2018-11-14T11:13:23.273Z,9.37
2018-11-14T11:15:57.385Z,10.07
2018-11-14T11:18:29.644Z,10.17
2018-11-14T11:20:58.472Z,10.40
2018-11-14T11:23:27.027Z,8.53
2018-11-14T11:25:55.815Z,10.13
2018-11-14T11:28:24.353Z,8.87
2018-11-14T11:30:53.175Z,9.50
2018-11-14T11:33:21.638Z,9.23
2018-11-14T11:35:50.379Z,10.43
2018-11-14T11:38:18.986Z,9.73
2018-11-14T11:40:47.661Z,8.47
2018-11-14T11:43:16.186Z,9.37
2018-11-14T11:45:44.926Z,9.13
2018-11-14T11:48:13.462Z,8.90
2018-11-14T11:50:42.176Z,8.77
2018-11-14T11:53:10.691Z,8.40
2018-11-14T11:55:39.490Z,7.63
2018-11-14T11:58:08.044Z,8.60
2018-11-14T12:00:37.030Z,6.73
2018-11-14T12:03:05.435Z,6.03
2018-11-14T12:05:34.294Z,6.73
2018-11-14T12:08:02.888Z,7.10
2018-11-14T12:10:31.638Z,6.83
2018-11-14T12:13:00.832Z,6.13
2018-11-14T12:15:29.617Z,6.17
2018-11-14T12:17:58.146Z,6.33
2018-11-14T12:20:26.896Z,5.90
2018-11-14T12:22:55.442Z,5.70
2018-11-14T12:25:24.263Z,5.87
2018-11-14T12:27:52.879Z,5.47
2018-11-14T12:30:21.811Z,6.10
2018-11-14T12:32:50.330Z,6.00
2018-11-14T12:35:19.180Z,6.00
2018-11-14T12:37:47.751Z,6.77
2018-11-14T12:40:16.454Z,6.17
2018-11-14T12:42:45.143Z,6.20
2018-11-14T12:45:15.314Z,6.60
2018-11-14T12:47:43.798Z,6.30
2018-11-14T12:50:13.530Z,6.33
2018-11-14T12:52:42.516Z,6.90
2018-11-14T12:55:12.843Z,7.83
2018-11-14T12:57:41.455Z,7.77
2018-11-14T13:00:12.513Z,6.53
2018-11-14T13:02:41.068Z,6.00
2018-11-14T13:05:10.758Z,7.63
2018-11-14T13:07:39.613Z,7.63
2018-11-14T13:10:09.587Z,9.80
2018-11-14T13:12:38.144Z,10.40
2018-11-14T13:15:08.079Z,11.23
2018-11-14T13:17:36.656Z,11.10
2018-11-14T13:20:07.530Z,9.60
2018-11-14T13:22:36.242Z,11.63
2018-11-14T13:25:06.060Z,11.93
2018-11-14T13:27:34.640Z,10.80
2018-11-14T13:30:03.557Z,11.10
2018-11-14T13:32:32.205Z,11.43
2018-11-14T13:35:01.044Z,10.47
2018-11-14T13:37:29.630Z,10.20
2018-11-14T13:39:58.476Z,9.70
2018-11-14T13:42:27.096Z,10.53
2018-11-14T13:44:55.976Z,9.80
2018-11-14T13:47:24.528Z,10.07
2018-11-14T13:49:53.560Z,9.97
2018-11-14T13:52:21.909Z,8.50
2018-11-14T13:54:50.640Z,9.30
2018-11-14T13:57:19.241Z,9.37
2018-11-14T13:59:48.165Z,8.90
2018-11-14T14:02:16.796Z,9.70
2018-11-14T14:04:45.422Z,9.40
2018-11-14T14:07:14.233Z,9.77
2018-11-14T14:09:42.869Z,9.60
2018-11-14T14:12:11.460Z,10.43
2018-11-14T14:14:40.247Z,11.33
2018-11-14T14:17:08.824Z,10.63
2018-11-14T14:19:37.624Z,12.20
2018-11-14T14:22:06.259Z,11.70
2018-11-14T14:24:35.103Z,13.83
2018-11-14T14:27:03.661Z,13.53
2018-11-14T14:29:32.371Z,13.27
2018-11-14T14:32:01.109Z,13.20
2018-11-14T14:34:29.801Z,12.93
2018-11-14T14:36:58.373Z,13.53
2018-11-14T14:39:27.035Z,14.20
2018-11-14T14:41:55.739Z,9.93
2018-11-14T14:44:24.387Z,10.20
2018-11-14T14:46:52.994Z,11.13
2018-11-14T14:49:22.123Z,10.97
2018-11-14T14:51:50.676Z,9.73
2018-11-14T14:54:19.707Z,10.90
2018-11-14T14:56:48.386Z,11.43
2018-11-14T14:59:17.285Z,12.47
2018-11-14T15:01:46.772Z,13.03
2018-11-14T15:04:16.618Z,13.27
2018-11-14T15:06:45.476Z,13.40
2018-11-14T15:09:14.540Z,12.63
2018-11-14T15:11:44.288Z,12.50
2018-11-14T15:14:13.481Z,12.40
2018-11-14T15:16:42.126Z,12.13
2018-11-14T15:19:11.026Z,9.00
2018-11-14T15:21:39.730Z,10.20
2018-11-14T15:24:08.677Z,9.40
2018-11-14T15:26:37.350Z,9.47
2018-11-14T15:29:06.553Z,8.80
2018-11-14T15:31:35.222Z,10.03
2018-11-14T15:34:04.137Z,9.67
2018-11-14T15:36:33.283Z,12.33
2018-11-14T15:39:02.907Z,11.00
2018-11-14T15:41:31.561Z,11.63
2018-11-14T15:44:00.357Z,14.27
2018-11-14T15:46:28.994Z,13.80
2018-11-14T15:48:57.925Z,13.57
2018-11-14T15:51:26.598Z,14.23
2018-11-14T15:53:55.412Z,19.97
2018-11-14T15:56:23.984Z,17.87
2018-11-14T15:58:52.731Z,19.23
2018-11-14T16:01:21.560Z,21.57
2018-11-14T16:03:50.481Z,22.37
2018-11-14T16:06:19.096Z,20.40
2018-11-14T16:08:47.991Z,18.77
2018-11-14T16:11:16.621Z,19.70
2018-11-14T16:13:49.577Z,17.30
2018-11-14T16:16:18.213Z,19.67
2018-11-14T16:18:46.931Z,17.50
2018-11-14T16:21:15.693Z,16.93
2018-11-14T16:23:44.975Z,16.17
2018-11-14T16:26:13.757Z,16.20
2018-11-14T16:28:43.102Z,19.70
2018-11-14T16:31:11.784Z,18.43
2018-11-14T16:33:40.861Z,16.97
2018-11-14T16:36:09.570Z,17.07
2018-11-14T16:38:38.476Z,17.17
2018-11-14T16:41:07.711Z,15.80
2018-11-14T16:43:36.616Z,16.37
2018-11-14T16:46:05.286Z,16.40
2018-11-14T16:48:34.079Z,17.37
2018-11-14T16:51:02.866Z,17.50
2018-11-14T16:53:31.757Z,19.40
2018-11-14T16:56:00.300Z,22.57
2018-11-14T16:58:29.119Z,24.10
2018-11-14T17:00:57.702Z,26.33
2018-11-14T17:03:26.411Z,26.90
2018-11-14T17:05:54.939Z,28.90
2018-11-14T17:08:23.718Z,29.00
2018-11-14T17:10:52.424Z,32.93
2018-11-14T17:13:21.084Z,28.87
2018-11-14T17:15:49.661Z,30.60
2018-11-14T17:18:18.424Z,25.37
2018-11-14T17:20:47.062Z,23.33
2018-11-14T17:23:16.164Z,23.87
2018-11-14T17:25:44.825Z,22.93
2018-11-14T17:28:13.752Z,19.57
2018-11-14T17:30:42.407Z,21.60
2018-11-14T17:33:11.263Z,23.23
2018-11-14T17:35:39.998Z,21.33
2018-11-14T17:38:08.849Z,23.13
2018-11-14T17:40:37.547Z,22.20
2018-11-14T17:43:06.457Z,22.53
2018-11-14T17:45:35.099Z,22.43
2018-11-14T17:48:03.715Z,21.73
2018-11-14T17:50:33.684Z,24.23
2018-11-14T17:53:03.162Z,23.63
2018-11-14T17:55:31.994Z,24.93
2018-11-14T17:58:01.073Z,25.10
2018-11-14T18:00:30.786Z,23.53
2018-11-14T18:02:59.755Z,24.97
2018-11-14T18:05:29.685Z,24.37
2018-11-14T18:07:58.374Z,27.33
2018-11-14T18:10:28.224Z,26.63
2018-11-14T18:12:58.300Z,26.17
2018-11-14T18:15:27.081Z,26.63
2018-11-14T18:17:56.531Z,27.47
2018-11-14T18:20:27.712Z,28.70
2018-11-14T18:22:57.085Z,27.10
2018-11-14T18:25:26.206Z,26.17
2018-11-14T18:27:55.304Z,26.50
2018-11-14T18:30:28.771Z,25.10
2018-11-14T18:32:58.846Z,26.87
2018-11-14T18:35:27.947Z,27.53
2018-11-14T18:37:58.082Z,26.30
2018-11-14T18:40:31.055Z,29.10
2018-11-14T18:43:00.132Z,31.23
2018-11-14T18:45:30.363Z,32.50
2018-11-14T18:48:00.311Z,31.03
2018-11-14T18:50:29.340Z,30.80
2018-11-14T18:52:58.124Z,30.93
2018-11-14T18:55:28.319Z,29.60
2018-11-14T18:57:57.488Z,30.37
2018-11-14T19:00:28.494Z,28.47
2018-11-14T19:02:57.620Z,28.67
2018-11-14T19:05:26.382Z,29.30
2018-11-14T19:07:55.417Z,32.33
2018-11-14T19:10:25.758Z,30.77
2018-11-14T19:12:54.723Z,31.13
2018-11-14T19:15:24.577Z,30.30
2018-11-14T19:17:53.582Z,32.67
2018-11-14T19:20:24.528Z,27.90
2018-11-14T19:22:54.035Z,29.80
2018-11-14T19:25:25.185Z,32.43
2018-11-14T19:27:54.171Z,32.53
2018-11-14T19:30:26.191Z,34.03
2018-11-14T19:32:55.566Z,37.00
2018-11-14T19:35:24.172Z,37.77
2018-11-14T19:37:53.894Z,43.10
2018-11-14T19:40:24.915Z,43.73
2018-11-14T19:42:56.221Z,41.37
2018-11-14T19:45:26.522Z,38.70
2018-11-14T19:47:55.897Z,36.93
2018-11-14T19:50:25.327Z,39.93
2018-11-14T19:52:54.303Z,37.50
2018-11-14T19:55:25.170Z,39.47
2018-11-14T19:57:55.301Z,41.97
2018-11-14T20:00:29.802Z,49.97
2018-11-14T20:02:58.554Z,61.43
2018-11-14T20:05:27.482Z,58.97
2018-11-14T20:07:56.146Z,55.80
2018-11-14T20:10:27.123Z,53.37
2018-11-14T20:12:55.704Z,48.07
2018-11-14T20:15:26.125Z,45.50
2018-11-14T20:17:54.775Z,38.43
2018-11-14T20:20:25.918Z,33.33
2018-11-14T20:22:54.547Z,34.70
2018-11-14T20:25:23.400Z,33.60
2018-11-14T20:27:52.088Z,37.00
2018-11-14T20:30:26.454Z,33.73
2018-11-14T20:32:56.324Z,32.90
2018-11-14T20:35:26.307Z,32.40
2018-11-14T20:37:55.156Z,33.13
2018-11-14T20:40:24.229Z,36.77
2018-11-14T20:42:53.937Z,35.20
2018-11-14T20:45:28.384Z,35.40
2018-11-14T20:47:56.977Z,33.83
2018-11-14T20:50:26.982Z,35.53
2018-11-14T20:52:58.284Z,34.13
2018-11-14T20:55:27.476Z,35.60
2018-11-14T20:57:56.457Z,34.43
2018-11-14T21:00:29.614Z,33.43
2018-11-14T21:02:58.409Z,34.67
2018-11-14T21:05:27.663Z,33.13
2018-11-14T21:07:56.395Z,33.23
2018-11-14T21:10:29.215Z,34.33
2018-11-14T21:12:58.549Z,33.40
2018-11-14T21:15:28.863Z,36.13
2018-11-14T21:17:58.522Z,39.10
2018-11-14T21:20:27.140Z,36.53
2018-11-14T21:22:55.949Z,36.20
2018-11-14T21:25:25.467Z,37.63
2018-11-14T21:27:54.834Z,37.97
2018-11-14T21:30:24.752Z,37.03
2018-11-14T21:32:53.584Z,35.67
2018-11-14T21:35:25.821Z,34.03
2018-11-14T21:37:55.781Z,35.87
2018-11-14T21:40:24.430Z,37.23
2018-11-14T21:42:53.154Z,37.57
2018-11-14T21:45:23.145Z,36.27
2018-11-14T21:47:57.050Z,39.97
2018-11-14T21:50:26.879Z,43.60
2018-11-14T21:52:55.700Z,43.50
2018-11-14T21:55:24.352Z,47.30
2018-11-14T21:57:52.934Z,50.80
2018-11-14T22:00:23.059Z,50.40
2018-11-14T22:02:53.828Z,51.83
2018-11-14T22:05:22.605Z,53.80
2018-11-14T22:07:51.327Z,52.37
2018-11-14T22:10:21.321Z,52.20
2018-11-14T22:12:50.623Z,51.53
2018-11-14T22:15:20.581Z,52.83
2018-11-14T22:17:49.207Z,54.37
2018-11-14T22:20:19.521Z,55.20
2018-11-14T22:22:48.754Z,53.60
2018-11-14T22:25:18.643Z,57.90
2018-11-14T22:27:47.337Z,60.20
2018-11-14T22:30:23.364Z,63.17
2018-11-14T22:32:51.958Z,65.33
2018-11-14T22:35:21.842Z,69.43
2018-11-14T22:37:50.448Z,68.60
2018-11-14T22:40:20.357Z,68.77
2018-11-14T22:42:48.895Z,70.97
2018-11-14T22:45:19.843Z,61.93
2018-11-14T22:47:48.666Z,54.40
2018-11-14T22:50:18.614Z,54.17
2018-11-14T22:52:47.703Z,52.67
2018-11-14T22:55:17.564Z,54.10
2018-11-14T22:57:47.012Z,60.87
2018-11-14T23:00:30.133Z,65.77
2018-11-14T23:02:59.951Z,69.27
2018-11-14T23:05:28.723Z,70.43
2018-11-14T23:07:58.041Z,70.67
2018-11-14T23:10:27.171Z,67.13
2018-11-14T23:12:55.696Z,64.00
2018-11-14T23:15:24.673Z,68.43
2018-11-14T23:17:53.327Z,63.43
2018-11-14T23:20:21.960Z,60.60
2018-11-14T23:22:51.097Z,57.30
2018-11-14T23:25:20.487Z,53.37
2018-11-14T23:27:50.334Z,57.13
2018-11-14T23:30:20.122Z,59.43
2018-11-14T23:32:49.878Z,58.57
2018-11-14T23:35:20.616Z,63.57
2018-11-14T23:37:50.375Z,64.50
2018-11-14T23:40:18.920Z,66.17
2018-11-14T23:42:47.777Z,70.70
2018-11-14T23:45:17.001Z,69.43
2018-11-14T23:47:46.274Z,70.97
2018-11-14T23:50:16.285Z,71.47
2018-11-14T23:52:46.054Z,74.37
2018-11-14T23:55:15.519Z,72.97
2018-11-14T23:57:44.102Z,73.63
